createdAt,value
2024-05-09T00:00:54.235Z,6.18
2024-05-09T00:03:47.038Z,6.51
2024-05-09T00:06:18.548Z,6.54
2024-05-09T00:08:50.247Z,6.30
2024-05-09T00:11:23.189Z,6.55
2024-05-09T00:13:54.333Z,6.36
2024-05-09T00:16:25.765Z,6.09
2024-05-09T00:18:56.851Z,6.52
2024-05-09T00:21:28.285Z,6.59
2024-05-09T00:23:59.280Z,6.54
2024-05-09T00:26:30.724Z,6.59
2024-05-09T00:29:01.869Z,6.14
2024-05-09T00:31:33.236Z,6.48
2024-05-09T00:34:04.420Z,6.43
2024-05-09T00:36:35.994Z,6.74
2024-05-09T00:39:07.047Z,6.89
2024-05-09T00:41:39.676Z,6.96
2024-05-09T00:44:11.142Z,6.70
2024-05-09T00:46:43.009Z,6.84
2024-05-09T00:49:15.985Z,6.74
2024-05-09T00:51:47.392Z,6.94
2024-05-09T00:54:20.092Z,7.03
2024-05-09T00:56:53.128Z,6.95
2024-05-09T00:59:24.661Z,7.01
2024-05-09T01:01:56.714Z,7.02
2024-05-09T01:04:27.877Z,6.89
2024-05-09T01:06:59.333Z,6.63
2024-05-09T01:09:30.469Z,6.82
2024-05-09T01:12:02.028Z,6.69
2024-05-09T01:14:33.256Z,6.58
2024-05-09T01:17:04.740Z,6.62
2024-05-09T01:19:36.546Z,6.69
2024-05-09T01:22:08.265Z,6.79
2024-05-09T01:24:39.227Z,6.88
2024-05-09T01:27:10.595Z,6.98
2024-05-09T01:29:41.536Z,6.96
2024-05-09T01:32:13.083Z,7.16
2024-05-09T01:34:44.255Z,6.71
2024-05-09T01:37:15.643Z,6.91
2024-05-09T01:39:46.548Z,6.77
2024-05-09T01:42:18.808Z,6.62
2024-05-09T01:44:49.739Z,6.71
2024-05-09T01:47:21.347Z,6.76
2024-05-09T01:49:52.451Z,6.66
2024-05-09T01:52:23.908Z,6.77
2024-05-09T01:54:54.899Z,6.89
2024-05-09T01:57:26.287Z,7.03
2024-05-09T01:59:57.296Z,7.09
2024-05-09T02:02:28.844Z,7.26
2024-05-09T02:05:00.056Z,7.30
2024-05-09T02:07:31.828Z,7.19
2024-05-09T02:10:06.591Z,7.23
2024-05-09T02:12:40.428Z,7.22
2024-05-09T02:15:11.693Z,7.24
2024-05-09T02:17:43.226Z,7.22
2024-05-09T02:20:22.542Z,7.27
2024-05-09T02:22:59.886Z,7.27
2024-05-09T02:25:30.975Z,7.41
2024-05-09T02:28:02.732Z,7.38
2024-05-09T02:30:39.675Z,7.38
2024-05-09T02:33:14.524Z,7.23
2024-05-09T02:35:46.569Z,7.45
2024-05-09T02:38:15.425Z,7.47
2024-05-09T02:40:46.517Z,7.29
2024-05-09T02:43:15.358Z,7.30
2024-05-09T02:45:46.352Z,7.44
2024-05-09T02:48:15.333Z,7.39
2024-05-09T02:50:46.620Z,7.43
2024-05-09T02:53:16.038Z,7.41
2024-05-09T02:55:47.218Z,7.44
2024-05-09T02:58:16.008Z,7.32
2024-05-09T03:00:46.953Z,7.13
2024-05-09T03:03:16.097Z,7.16
2024-05-09T03:05:48.238Z,7.39
2024-05-09T03:08:17.135Z,7.50
2024-05-09T03:10:48.053Z,7.33
2024-05-09T03:13:17.445Z,7.63
2024-05-09T03:15:48.820Z,7.65
2024-05-09T03:18:17.839Z,7.71
2024-05-09T03:20:49.152Z,7.73
2024-05-09T03:23:17.994Z,7.74
2024-05-09T03:25:49.005Z,7.69
2024-05-09T03:28:17.866Z,7.51
2024-05-09T03:30:49.100Z,7.50
2024-05-09T03:33:19.785Z,7.78
2024-05-09T03:35:52.437Z,7.64
2024-05-09T03:38:23.927Z,7.85
2024-05-09T03:40:55.654Z,7.49
2024-05-09T03:43:27.231Z,7.95
2024-05-09T03:45:58.219Z,8.04
2024-05-09T03:48:27.124Z,7.96
2024-05-09T03:50:58.122Z,8.08
2024-05-09T03:53:27.073Z,8.21
2024-05-09T03:55:58.463Z,8.11
2024-05-09T03:58:27.416Z,8.31
2024-05-09T04:00:58.498Z,8.26
2024-05-09T04:03:27.677Z,8.25
2024-05-09T04:05:59.082Z,8.29
2024-05-09T04:08:27.885Z,8.42
2024-05-09T04:10:59.107Z,8.22
2024-05-09T04:13:28.227Z,8.37
2024-05-09T04:15:59.183Z,8.48
2024-05-09T04:18:28.418Z,8.36
2024-05-09T04:20:59.664Z,8.62
2024-05-09T04:23:28.638Z,8.73
2024-05-09T04:25:59.713Z,8.64
2024-05-09T04:28:28.543Z,8.72
2024-05-09T04:30:59.428Z,8.76
2024-05-09T04:33:28.592Z,8.77
2024-05-09T04:35:59.671Z,8.45
2024-05-09T04:38:30.362Z,8.60
2024-05-09T04:41:02.166Z,8.52
2024-05-09T04:43:31.078Z,9.13
2024-05-09T04:46:02.243Z,9.12
2024-05-09T04:48:31.366Z,9.25
2024-05-09T04:51:05.455Z,9.24
2024-05-09T04:53:34.422Z,9.45
2024-05-09T04:56:05.520Z,9.27
2024-05-09T04:58:34.302Z,9.48
2024-05-09T05:01:05.285Z,9.70
2024-05-09T05:03:34.298Z,9.85
2024-05-09T05:06:05.614Z,9.90
2024-05-09T05:08:35.661Z,9.68
2024-05-09T05:11:06.648Z,9.52
2024-05-09T05:13:39.434Z,9.87
2024-05-09T05:16:12.010Z,10.18
2024-05-09T05:18:41.289Z,9.93
2024-05-09T05:21:12.495Z,10.36
2024-05-09T05:23:41.743Z,10.63
2024-05-09T05:26:16.296Z,10.57
2024-05-09T05:28:45.254Z,10.78
2024-05-09T05:31:17.986Z,10.49
2024-05-09T05:33:49.329Z,10.65
2024-05-09T05:36:20.807Z,10.83
2024-05-09T05:38:49.745Z,11.04
2024-05-09T05:41:20.816Z,11.31
2024-05-09T05:43:49.843Z,11.50
2024-05-09T05:46:20.929Z,11.53
2024-05-09T05:48:49.932Z,12.05
2024-05-09T05:51:21.090Z,12.43
2024-05-09T05:53:50.257Z,12.65
2024-05-09T05:56:21.808Z,12.84
2024-05-09T05:58:51.635Z,13.18
2024-05-09T06:01:22.699Z,13.76
2024-05-09T06:03:51.755Z,15.01
2024-05-09T06:06:22.855Z,16.27
2024-05-09T06:08:52.762Z,16.33
2024-05-09T06:11:24.076Z,16.14
2024-05-09T06:13:53.295Z,16.45
2024-05-09T06:16:24.448Z,16.23
2024-05-09T06:18:53.866Z,16.20
2024-05-09T06:21:25.034Z,16.05
2024-05-09T06:23:55.143Z,15.68
2024-05-09T06:26:26.143Z,15.78
2024-05-09T06:28:55.490Z,16.20
2024-05-09T06:31:27.571Z,15.89
2024-05-09T06:33:57.352Z,16.08
2024-05-09T06:36:28.393Z,16.04
2024-05-09T06:38:57.386Z,16.78
2024-05-09T06:41:28.526Z,17.09
2024-05-09T06:43:58.285Z,18.54
2024-05-09T06:46:29.966Z,20.58
2024-05-09T06:49:04.583Z,21.23
2024-05-09T06:51:39.082Z,20.99
2024-05-09T06:54:08.524Z,21.40
2024-05-09T06:56:39.775Z,22.63
2024-05-09T06:59:08.743Z,23.67
2024-05-09T07:01:40.110Z,22.92
2024-05-09T07:04:09.106Z,23.09
2024-05-09T07:06:40.328Z,21.79
2024-05-09T07:09:09.170Z,22.09
2024-05-09T07:11:40.543Z,20.79
2024-05-09T07:14:11.000Z,20.31
2024-05-09T07:16:41.816Z,19.44
2024-05-09T07:19:10.617Z,19.73
2024-05-09T07:21:42.102Z,19.73
2024-05-09T07:24:11.215Z,20.66
2024-05-09T07:26:42.177Z,20.97
2024-05-09T07:29:11.569Z,21.43
2024-05-09T07:31:42.612Z,21.53
2024-05-09T07:34:12.142Z,22.87
2024-05-09T07:36:43.264Z,22.71
2024-05-09T07:39:12.186Z,21.81
2024-05-09T07:41:43.386Z,21.71
2024-05-09T07:44:12.218Z,20.71
2024-05-09T07:50:55.840Z,20.98
2024-05-09T07:54:37.723Z,25.59
2024-05-09T07:57:08.962Z,26.06
2024-05-09T07:59:39.492Z,23.13
2024-05-09T08:02:11.102Z,22.50
2024-05-09T08:04:40.367Z,22.43
2024-05-09T08:07:11.582Z,23.63
2024-05-09T08:09:40.512Z,24.86
2024-05-09T08:12:12.942Z,23.30
2024-05-09T08:14:41.856Z,23.52
2024-05-09T08:17:13.371Z,22.88
2024-05-09T08:19:42.351Z,22.40
2024-05-09T08:22:13.558Z,22.78
2024-05-09T08:24:47.005Z,24.03
2024-05-09T08:27:18.327Z,25.17
2024-05-09T08:29:47.240Z,25.37
2024-05-09T08:32:18.286Z,23.08
2024-05-09T08:34:47.295Z,21.76
2024-05-09T08:37:22.418Z,22.65
2024-05-09T08:39:53.574Z,23.66
2024-05-09T08:42:26.578Z,24.04
2024-05-09T08:44:55.441Z,23.48
2024-05-09T08:47:27.369Z,24.27
2024-05-09T08:49:59.254Z,24.43
2024-05-09T08:52:30.434Z,24.42
2024-05-09T08:55:00.951Z,25.10
2024-05-09T08:57:34.107Z,25.66
2024-05-09T09:00:10.306Z,25.95
2024-05-09T09:02:47.554Z,26.32
2024-05-09T09:05:21.477Z,27.05
2024-05-09T09:07:52.530Z,26.65
2024-05-09T09:10:29.598Z,26.09
2024-05-09T09:13:09.902Z,25.64
2024-05-09T09:15:52.173Z,24.42
2024-05-09T09:18:23.309Z,25.55
2024-05-09T09:20:52.465Z,27.25
2024-05-09T09:23:23.617Z,27.85
2024-05-09T09:25:52.602Z,27.92
2024-05-09T09:28:27.098Z,26.08
2024-05-09T09:31:03.368Z,26.39
2024-05-09T09:33:36.321Z,25.64
2024-05-09T09:36:08.402Z,26.61
2024-05-09T09:38:40.813Z,27.57
2024-05-09T09:41:11.042Z,28.14
2024-05-09T09:43:45.983Z,27.75
2024-05-09T09:46:16.084Z,26.26
2024-05-09T09:48:48.100Z,26.75
2024-05-09T09:51:20.141Z,27.06
2024-05-09T09:53:54.278Z,27.14
2024-05-09T09:56:24.643Z,26.71
2024-05-09T09:58:57.916Z,27.20
2024-05-09T10:01:29.974Z,26.83
2024-05-09T10:04:01.723Z,27.76
2024-05-09T10:06:31.521Z,27.85
2024-05-09T10:09:03.177Z,27.94
2024-05-09T10:11:34.892Z,27.80
2024-05-09T10:14:10.108Z,28.57
2024-05-09T10:16:45.327Z,28.57
2024-05-09T10:19:29.902Z,28.50
2024-05-09T10:22:03.944Z,28.02
2024-05-09T10:24:55.132Z,28.32
2024-05-09T10:27:31.041Z,28.38
2024-05-09T10:30:07.007Z,28.00
2024-05-09T10:32:41.801Z,28.18
2024-05-09T10:35:15.234Z,27.73
2024-05-09T10:37:46.409Z,27.83
2024-05-09T10:40:26.582Z,28.11
2024-05-09T10:43:04.499Z,28.58
2024-05-09T10:45:38.763Z,26.63
2024-05-09T10:48:09.325Z,26.87
2024-05-09T10:50:43.970Z,27.80
2024-05-09T10:53:13.209Z,27.68
2024-05-09T10:55:44.157Z,28.25
2024-05-09T10:58:19.399Z,28.21
2024-05-09T11:00:50.721Z,28.73
2024-05-09T11:03:20.129Z,28.34
2024-05-09T11:05:52.137Z,27.98
2024-05-09T11:08:22.717Z,27.43
2024-05-09T11:10:59.679Z,27.86
2024-05-09T11:13:33.351Z,27.66
2024-05-09T11:16:05.201Z,28.44
2024-05-09T11:18:38.182Z,28.85
2024-05-09T11:21:15.968Z,28.69
2024-05-09T11:23:44.916Z,28.46
2024-05-09T11:26:19.514Z,27.77
2024-05-09T11:28:48.492Z,28.50
2024-05-09T11:31:20.268Z,26.91
2024-05-09T11:33:49.686Z,27.23
2024-05-09T11:36:20.826Z,27.21
2024-05-09T11:38:49.736Z,28.15
2024-05-09T11:41:21.906Z,27.52
2024-05-09T11:43:54.071Z,28.37
2024-05-09T11:46:25.425Z,28.51
2024-05-09T11:48:54.616Z,28.50
2024-05-09T11:51:25.845Z,28.74
2024-05-09T11:53:54.736Z,28.41
2024-05-09T11:56:26.153Z,28.16
2024-05-09T11:58:55.155Z,28.58
2024-05-09T12:01:29.469Z,28.82
2024-05-09T12:03:58.760Z,28.53
2024-05-09T12:06:31.810Z,27.99
2024-05-09T12:09:00.727Z,27.74
2024-05-09T12:11:32.250Z,27.66
2024-05-09T12:14:01.365Z,27.80
2024-05-09T12:16:32.694Z,26.11
2024-05-09T12:19:02.257Z,26.35
2024-05-09T12:21:33.579Z,26.34
2024-05-09T12:24:02.574Z,26.70
2024-05-09T12:26:33.863Z,25.99
2024-05-09T12:29:02.764Z,26.08
2024-05-09T12:31:34.004Z,25.36
2024-05-09T12:34:03.219Z,24.78
2024-05-09T12:36:35.201Z,24.64
2024-05-09T12:39:06.429Z,24.32
2024-05-09T12:41:37.498Z,23.23
2024-05-09T12:44:06.532Z,23.49
2024-05-09T12:46:37.770Z,24.08
2024-05-09T12:49:06.982Z,24.73
2024-05-09T12:51:38.471Z,25.13
2024-05-09T12:54:07.281Z,24.97
2024-05-09T12:56:38.327Z,25.28
2024-05-09T12:59:07.054Z,25.73
2024-05-09T13:01:38.253Z,25.43
2024-05-09T13:04:07.233Z,25.58
2024-05-09T13:06:38.375Z,25.42
2024-05-09T13:09:07.406Z,25.17
2024-05-09T13:11:38.940Z,24.71
2024-05-09T13:14:08.191Z,23.85
2024-05-09T13:16:39.361Z,23.58
2024-05-09T13:19:08.540Z,23.11
2024-05-09T13:21:39.966Z,22.65
2024-05-09T13:24:08.865Z,21.87
2024-05-09T13:26:39.901Z,20.18
2024-05-09T13:29:08.744Z,19.83
2024-05-09T13:31:39.754Z,19.57
2024-05-09T13:34:08.654Z,19.97
2024-05-09T13:36:39.950Z,19.37
2024-05-09T13:39:08.759Z,19.36
2024-05-09T13:41:39.901Z,19.57
2024-05-09T13:44:09.812Z,19.27
2024-05-09T13:46:40.987Z,19.39
2024-05-09T13:49:12.533Z,18.98
2024-05-09T13:51:43.835Z,19.71
2024-05-09T13:54:12.687Z,19.57
2024-05-09T13:56:44.812Z,20.09
2024-05-09T13:59:13.694Z,20.03
2024-05-09T14:01:44.810Z,19.36
2024-05-09T14:04:14.229Z,18.12
2024-05-09T14:06:45.545Z,18.12
2024-05-09T14:09:14.450Z,18.10
2024-05-09T14:11:45.895Z,18.25
2024-05-09T14:14:14.881Z,18.12
2024-05-09T14:16:46.625Z,18.37
2024-05-09T14:19:15.788Z,19.26
2024-05-09T14:21:47.018Z,19.98
2024-05-09T14:24:16.506Z,19.68
2024-05-09T14:26:47.630Z,18.49
2024-05-09T14:29:16.351Z,17.89
2024-05-09T14:31:47.489Z,17.16
2024-05-09T14:34:16.614Z,17.28
2024-05-09T14:36:48.129Z,17.27
2024-05-09T14:39:18.864Z,18.12
2024-05-09T14:41:50.003Z,18.35
2024-05-09T14:44:18.805Z,18.69
2024-05-09T14:46:49.828Z,18.63
2024-05-09T14:49:19.089Z,18.29
2024-05-09T14:51:51.527Z,18.76
2024-05-09T14:54:20.415Z,18.67
2024-05-09T14:56:51.644Z,18.92
2024-05-09T14:59:20.915Z,18.60
2024-05-09T15:01:52.659Z,18.02
2024-05-09T15:04:22.062Z,18.60
2024-05-09T15:06:53.266Z,19.10
2024-05-09T15:09:22.770Z,18.40
2024-05-09T15:11:54.863Z,17.82
2024-05-09T15:14:24.862Z,18.34
2024-05-09T15:16:57.216Z,18.87
2024-05-09T15:19:26.366Z,19.05
2024-05-09T15:21:57.588Z,18.89
2024-05-09T15:24:26.500Z,19.28
2024-05-09T15:26:57.577Z,18.14
2024-05-09T15:29:26.422Z,18.36
2024-05-09T15:31:57.483Z,18.57
2024-05-09T15:34:27.036Z,18.41
2024-05-09T15:36:57.847Z,18.99
2024-05-09T15:39:30.272Z,19.36
2024-05-09T15:42:01.434Z,19.40
2024-05-09T15:44:30.475Z,18.89
2024-05-09T15:47:01.578Z,18.75
2024-05-09T15:49:30.604Z,18.44
2024-05-09T15:52:01.880Z,18.39
2024-05-09T15:54:30.868Z,18.36
2024-05-09T15:57:01.896Z,18.21
2024-05-09T15:59:30.699Z,18.40
2024-05-09T16:02:02.336Z,18.65
2024-05-09T16:04:31.569Z,18.20
2024-05-09T16:07:02.877Z,18.47
2024-05-09T16:09:31.842Z,18.41
2024-05-09T16:12:02.866Z,18.66
2024-05-09T16:14:31.915Z,18.55
2024-05-09T16:17:03.026Z,18.83
2024-05-09T16:19:32.054Z,19.08
2024-05-09T16:22:03.156Z,19.15
2024-05-09T16:24:32.146Z,19.23
2024-05-09T16:27:03.388Z,19.08
2024-05-09T16:29:32.326Z,19.14
2024-05-09T16:32:03.523Z,19.10
2024-05-09T16:34:32.421Z,18.44
2024-05-09T16:37:04.917Z,17.61
2024-05-09T16:39:33.954Z,18.00
2024-05-09T16:42:05.300Z,17.51
2024-05-09T16:44:35.596Z,17.21
2024-05-09T16:47:06.909Z,17.16
2024-05-09T16:49:35.923Z,17.30
2024-05-09T16:52:07.054Z,16.65
2024-05-09T16:54:36.088Z,17.09
2024-05-09T16:57:07.485Z,17.34
2024-05-09T16:59:36.583Z,17.59
2024-05-09T17:02:08.061Z,17.85
2024-05-09T17:04:37.173Z,17.97
2024-05-09T17:07:09.492Z,18.04
2024-05-09T17:09:40.001Z,18.02
2024-05-09T17:12:11.507Z,18.12
2024-05-09T17:14:43.622Z,17.94
2024-05-09T17:17:14.986Z,18.01
2024-05-09T17:19:47.593Z,17.94
2024-05-09T17:22:16.503Z,17.77
2024-05-09T17:24:48.196Z,17.49
2024-05-09T17:27:16.876Z,17.72
2024-05-09T17:29:49.468Z,17.52
2024-05-09T17:32:18.097Z,17.33
2024-05-09T17:34:49.681Z,16.75
2024-05-09T17:37:18.572Z,17.08
2024-05-09T17:39:50.299Z,16.84
2024-05-09T17:42:18.732Z,16.65
2024-05-09T17:44:50.212Z,16.78
2024-05-09T17:47:18.589Z,16.65
2024-05-09T17:49:50.215Z,16.43
2024-05-09T17:52:19.004Z,16.41
2024-05-09T17:54:50.597Z,15.97
2024-05-09T17:57:19.458Z,16.14
2024-05-09T17:59:52.146Z,16.08
2024-05-09T18:02:23.552Z,16.00
2024-05-09T18:04:52.822Z,15.74
2024-05-09T18:07:23.946Z,15.55
2024-05-09T18:09:52.907Z,15.16
2024-05-09T18:12:23.903Z,15.24
2024-05-09T18:14:53.009Z,15.04
2024-05-09T18:17:25.849Z,14.94
2024-05-09T18:19:55.048Z,14.63
2024-05-09T18:22:26.587Z,14.71
2024-05-09T18:24:55.547Z,14.60
2024-05-09T18:27:26.979Z,14.27
2024-05-09T18:29:56.084Z,14.21
2024-05-09T18:32:27.403Z,13.83
2024-05-09T18:34:56.455Z,13.48
2024-05-09T18:37:27.805Z,13.85
2024-05-09T18:39:56.930Z,13.51
2024-05-09T18:42:28.321Z,13.17
2024-05-09T18:44:57.231Z,13.55
2024-05-09T18:47:28.819Z,13.47
2024-05-09T18:49:57.911Z,13.08
2024-05-09T18:52:29.121Z,13.09
2024-05-09T18:54:58.312Z,12.93
2024-05-09T18:57:30.256Z,12.85
2024-05-09T18:59:59.256Z,12.79
2024-05-09T19:02:30.705Z,12.76
2024-05-09T19:04:59.829Z,12.65
2024-05-09T19:07:31.380Z,12.61
2024-05-09T19:10:00.335Z,12.89
2024-05-09T19:12:31.908Z,12.97
2024-05-09T19:15:00.780Z,12.28
2024-05-09T19:17:32.734Z,12.89
2024-05-09T19:20:02.010Z,12.80
2024-05-09T19:22:33.371Z,12.87
2024-05-09T19:25:02.451Z,12.57
2024-05-09T19:27:33.760Z,12.90
2024-05-09T19:32:34.149Z,12.77
2024-05-09T19:35:03.310Z,12.85
2024-05-09T19:37:34.503Z,12.69
2024-05-09T19:40:06.867Z,12.77
2024-05-09T19:42:40.340Z,12.40
2024-05-09T19:45:09.624Z,12.62
2024-05-09T19:47:41.512Z,12.41
2024-05-09T19:50:11.227Z,12.37
2024-05-09T19:52:47.205Z,12.49
2024-05-09T19:55:16.567Z,12.53
2024-05-09T19:57:48.237Z,12.29
2024-05-09T20:00:22.266Z,12.51
2024-05-09T20:03:00.978Z,12.51
2024-05-09T20:05:31.320Z,12.52
2024-05-09T20:08:02.650Z,12.50
2024-05-09T20:10:34.203Z,12.52
2024-05-09T20:13:08.410Z,12.35
2024-05-09T20:15:38.347Z,12.48
2024-05-09T20:18:10.271Z,12.43
2024-05-09T20:20:42.507Z,12.39
2024-05-09T20:23:16.206Z,12.33
2024-05-09T20:25:45.187Z,12.21
2024-05-09T20:28:16.676Z,12.31
2024-05-09T20:30:45.620Z,12.12
2024-05-09T20:33:16.960Z,12.10
2024-05-09T20:35:47.331Z,12.23
2024-05-09T20:38:18.643Z,12.15
2024-05-09T20:40:47.741Z,12.20
2024-05-09T20:43:19.254Z,11.79
2024-05-09T20:45:48.329Z,12.07
2024-05-09T20:48:19.923Z,12.22
2024-05-09T20:50:49.555Z,12.31
2024-05-09T20:53:21.544Z,12.17
2024-05-09T20:55:50.472Z,12.12
2024-05-09T20:58:21.805Z,12.27
2024-05-09T21:00:51.002Z,12.31
2024-05-09T21:03:22.733Z,12.28
2024-05-09T21:05:51.811Z,12.26
2024-05-09T21:08:23.847Z,12.37
2024-05-09T21:10:53.110Z,12.19
2024-05-09T21:13:24.478Z,12.38
2024-05-09T21:15:53.743Z,12.24
2024-05-09T21:18:24.887Z,12.76
2024-05-09T21:20:53.988Z,12.65
2024-05-09T21:23:24.993Z,12.77
2024-05-09T21:25:53.826Z,12.92
2024-05-09T21:28:25.158Z,12.77
2024-05-09T21:30:54.582Z,13.01
2024-05-09T21:33:25.714Z,13.12
2024-05-09T21:35:55.610Z,13.09
2024-05-09T21:38:26.951Z,12.79
2024-05-09T21:40:56.240Z,13.20
2024-05-09T21:43:31.632Z,13.22
2024-05-09T21:46:00.646Z,13.25
2024-05-09T21:48:31.783Z,13.24
2024-05-09T21:51:00.718Z,13.26
2024-05-09T21:53:32.351Z,13.39
2024-05-09T21:56:02.091Z,13.28
2024-05-09T21:58:33.244Z,13.31
2024-05-09T22:01:03.826Z,13.47
2024-05-09T22:03:35.529Z,13.12
2024-05-09T22:06:04.986Z,13.42
2024-05-09T22:08:36.066Z,13.43
2024-05-09T22:11:05.420Z,13.39
2024-05-09T22:13:36.569Z,13.34
2024-05-09T22:16:05.886Z,13.05
2024-05-09T22:18:36.994Z,13.35
2024-05-09T22:21:05.845Z,13.23
2024-05-09T22:23:36.812Z,12.97
2024-05-09T22:26:05.739Z,13.26
2024-05-09T22:28:37.021Z,13.22
2024-05-09T22:31:05.899Z,13.20
2024-05-09T22:33:37.284Z,12.84
2024-05-09T22:36:08.735Z,13.15
2024-05-09T22:38:39.807Z,13.24
2024-05-09T22:41:08.718Z,13.36
2024-05-09T22:43:39.928Z,13.26
2024-05-09T22:46:09.201Z,13.46
2024-05-09T22:48:40.384Z,13.38
2024-05-09T22:51:09.234Z,13.35
2024-05-09T22:53:40.270Z,13.44
2024-05-09T22:56:09.054Z,12.91
2024-05-09T22:58:40.055Z,13.30
2024-05-09T23:01:15.596Z,13.34
2024-05-09T23:03:46.885Z,13.24
2024-05-09T23:06:16.202Z,13.48
2024-05-09T23:08:47.277Z,13.28
2024-05-09T23:11:16.399Z,13.27
2024-05-09T23:13:47.410Z,13.43
2024-05-09T23:16:16.340Z,13.48
2024-05-09T23:18:47.432Z,13.42
2024-05-09T23:21:16.337Z,13.39
2024-05-09T23:23:47.195Z,13.40
2024-05-09T23:26:16.024Z,13.03
2024-05-09T23:28:47.078Z,13.39
2024-05-09T23:31:15.939Z,13.53
2024-05-09T23:33:50.242Z,13.06
2024-05-09T23:36:19.365Z,13.42
2024-05-09T23:38:51.656Z,13.02
2024-05-09T23:41:20.640Z,13.27
2024-05-09T23:43:51.624Z,13.24
2024-05-09T23:46:20.533Z,13.59
2024-05-09T23:48:51.644Z,13.42
2024-05-09T23:51:20.911Z,13.62
2024-05-09T23:53:51.904Z,13.19
2024-05-09T23:56:21.717Z,13.52
2024-05-09T23:58:52.717Z,13.30
